Orlando, Florida
Traffic Map
Current Weather Conditions
Orlando, Florida
Few Clouds
Few Clouds
73°
Feels Like: 73°
Wind Chill: 73° Ceiling: Unl
Heat Index: 73° Visibility: 10mi
Dew Point: 73° Wind: 0mph
Humidity: 100% Direction: ° ()
Pressure: 29.98in Gusts: 0mph
Raw Report DataKMCO 200953Z 00000KT 10SM FEW020 FEW095 23/23 A2998 RMK AO2 SLP150 T02280228
Traffic Incident Summary
Active as of:
Severity:
Category:
InformationThere was an issue retrieving the traffic information for this location. Please try a different location or try again shortly.
Advertisements